createdAt,value
2018-02-02T00:02:08.727Z,2.80
2018-02-02T00:04:37.052Z,3.13
2018-02-02T00:07:06.140Z,3.77
2018-02-02T00:09:35.219Z,3.03
2018-02-02T00:12:03.523Z,3.27
2018-02-02T00:14:32.620Z,3.10
2018-02-02T00:17:01.679Z,2.83
2018-02-02T00:19:29.995Z,2.60
2018-02-02T00:21:59.057Z,2.83
2018-02-02T00:24:27.507Z,2.97
2018-02-02T00:26:55.806Z,3.00
2018-02-02T00:29:24.119Z,2.80
2018-02-02T00:31:53.180Z,2.67
2018-02-02T00:34:21.510Z,2.67
2018-02-02T00:36:50.563Z,3.60
2018-02-02T00:39:18.888Z,3.70
2018-02-02T00:41:47.180Z,3.17
2018-02-02T00:44:15.511Z,3.63
2018-02-02T00:46:43.809Z,2.70
2018-02-02T00:49:12.128Z,3.67
2018-02-02T00:51:46.177Z,3.90
2018-02-02T00:54:14.473Z,5.37
2018-02-02T00:56:43.544Z,4.20
2018-02-02T00:59:11.852Z,4.67
2018-02-02T01:01:40.927Z,4.40
2018-02-02T01:04:09.229Z,4.70
2018-02-02T01:06:38.303Z,4.20
2018-02-02T01:09:06.612Z,5.20
2018-02-02T01:11:35.687Z,4.40
2018-02-02T01:14:04.748Z,5.67
2018-02-02T01:16:33.075Z,5.13
2018-02-02T01:19:02.140Z,5.83
2018-02-02T01:21:30.462Z,5.47
2018-02-02T01:23:58.759Z,4.87
2018-02-02T01:26:27.058Z,5.90
2018-02-02T01:28:55.408Z,5.33
2018-02-02T01:31:23.697Z,5.90
2018-02-02T01:33:52.015Z,6.07
2018-02-02T01:36:20.316Z,5.20
2018-02-02T01:38:49.396Z,5.83
2018-02-02T01:41:17.700Z,5.90
2018-02-02T01:43:46.028Z,6.30
2018-02-02T01:46:14.344Z,5.57
2018-02-02T01:48:42.680Z,5.70
2018-02-02T01:51:10.991Z,6.93
2018-02-02T01:53:39.306Z,6.87
2018-02-02T01:56:07.615Z,6.07
2018-02-02T01:58:35.936Z,5.20
2018-02-02T02:01:04.997Z,5.73
2018-02-02T02:03:33.308Z,5.70
2018-02-02T02:06:02.400Z,5.77
2018-02-02T02:08:31.575Z,7.57
2018-02-02T02:10:59.909Z,7.57
2018-02-02T02:13:28.204Z,5.60
2018-02-02T02:15:56.524Z,6.77
2018-02-02T02:18:24.820Z,5.83
2018-02-02T02:20:53.926Z,6.83
2018-02-02T02:23:22.995Z,6.80
2018-02-02T02:25:51.339Z,7.43
2018-02-02T02:28:19.649Z,6.93
2018-02-02T02:30:47.969Z,6.67
2018-02-02T02:33:16.272Z,6.90
2018-02-02T02:35:44.598Z,7.33
2018-02-02T02:38:13.675Z,7.50
2018-02-02T02:40:41.994Z,7.20
2018-02-02T02:43:10.304Z,6.93
2018-02-02T02:45:38.631Z,7.40
2018-02-02T02:48:07.713Z,6.60
2018-02-02T02:50:36.041Z,7.50
2018-02-02T02:53:04.347Z,7.27
2018-02-02T02:55:32.678Z,5.90
2018-02-02T02:58:00.982Z,7.33
2018-02-02T03:00:29.313Z,7.43
2018-02-02T03:02:58.388Z,7.70
2018-02-02T03:05:26.731Z,7.37
2018-02-02T03:07:55.026Z,7.57
2018-02-02T03:10:23.352Z,7.77
2018-02-02T03:12:52.923Z,7.90
2018-02-02T03:15:22.027Z,6.97
2018-02-02T03:17:50.444Z,7.13
2018-02-02T03:20:18.748Z,7.20
2018-02-02T03:22:47.840Z,6.90
2018-02-02T03:25:16.146Z,6.80
2018-02-02T03:27:44.471Z,6.37
2018-02-02T03:30:13.535Z,6.63
2018-02-02T03:32:41.865Z,8.60
2018-02-02T03:35:10.167Z,7.73
2018-02-02T03:37:38.512Z,8.17
2018-02-02T03:40:06.823Z,8.23
2018-02-02T03:42:36.014Z,8.10
2018-02-02T03:45:04.318Z,7.80
2018-02-02T03:47:32.624Z,7.47
2018-02-02T03:50:00.959Z,8.27
2018-02-02T03:52:29.367Z,7.50
2018-02-02T03:54:57.675Z,8.07
2018-02-02T03:57:25.995Z,7.30
2018-02-02T03:59:54.440Z,8.40
2018-02-02T04:02:22.746Z,7.50
2018-02-02T04:04:51.978Z,7.13
2018-02-02T04:07:20.279Z,8.07
2018-02-02T04:10:04.115Z,8.17
2018-02-02T04:12:33.193Z,7.70
2018-02-02T04:15:01.511Z,7.50
2018-02-02T04:17:29.824Z,7.60
2018-02-02T04:19:58.164Z,8.40
2018-02-02T04:22:26.453Z,7.40
2018-02-02T04:24:54.752Z,8.10
2018-02-02T04:27:23.086Z,7.70
2018-02-02T04:29:51.401Z,7.63
2018-02-02T04:32:19.735Z,8.23
2018-02-02T04:34:58.710Z,9.90
2018-02-02T04:37:27.043Z,8.00
2018-02-02T04:39:56.117Z,8.13
2018-02-02T04:42:24.431Z,9.17
2018-02-02T04:44:52.739Z,8.63
2018-02-02T04:47:21.071Z,9.00
2018-02-02T04:49:49.354Z,7.80
2018-02-02T04:52:18.455Z,7.37
2018-02-02T04:54:47.510Z,7.00
2018-02-02T04:57:15.831Z,8.27
2018-02-02T04:59:44.153Z,7.20
2018-02-02T05:02:12.482Z,7.10
2018-02-02T05:04:41.551Z,7.27
2018-02-02T05:07:09.867Z,7.00
2018-02-02T05:09:38.222Z,6.87
2018-02-02T05:12:07.319Z,6.60
2018-02-02T05:14:35.639Z,7.70
2018-02-02T05:17:03.940Z,6.33
2018-02-02T05:19:32.247Z,5.70
2018-02-02T05:22:00.541Z,6.50
2018-02-02T05:24:29.620Z,8.37
2018-02-02T05:26:57.915Z,7.20
2018-02-02T05:29:27.000Z,7.70
2018-02-02T05:31:55.299Z,5.93
2018-02-02T05:34:23.613Z,6.77
2018-02-02T05:36:51.932Z,5.27
2018-02-02T05:39:20.247Z,5.43
2018-02-02T05:41:48.539Z,4.50
2018-02-02T05:44:16.852Z,4.90
2018-02-02T05:46:45.139Z,5.90
2018-02-02T05:49:13.454Z,5.87
2018-02-02T05:51:41.752Z,5.90
2018-02-02T05:54:10.083Z,6.10
2018-02-02T05:56:39.138Z,6.30
2018-02-02T05:59:07.426Z,5.83
2018-02-02T06:01:35.739Z,5.57
2018-02-02T06:04:04.794Z,5.33
2018-02-02T06:06:33.109Z,6.73
2018-02-02T06:09:01.399Z,6.03
2018-02-02T06:11:29.722Z,4.87
2018-02-02T06:13:58.012Z,6.20
2018-02-02T06:16:26.326Z,5.20
2018-02-02T06:18:55.415Z,5.77
2018-02-02T06:21:24.510Z,5.17
2018-02-02T06:23:53.572Z,5.33
2018-02-02T06:26:21.883Z,4.90
2018-02-02T06:28:50.942Z,5.27
2018-02-02T06:31:19.258Z,4.53
2018-02-02T06:33:48.327Z,5.10
2018-02-02T06:36:16.642Z,3.90
2018-02-02T06:38:45.694Z,4.80
2018-02-02T06:41:14.007Z,4.40
2018-02-02T06:43:42.300Z,5.03
2018-02-02T06:46:11.383Z,4.17
2018-02-02T06:48:40.444Z,4.70
2018-02-02T06:51:08.775Z,5.00
2018-02-02T06:53:37.853Z,4.73
2018-02-02T06:56:06.920Z,3.70
2018-02-02T06:58:35.222Z,4.40
2018-02-02T07:01:04.292Z,4.60
2018-02-02T07:03:32.618Z,5.60
2018-02-02T07:06:01.668Z,5.20
2018-02-02T07:08:29.979Z,5.00
2018-02-02T07:10:59.039Z,6.30
2018-02-02T07:13:27.356Z,8.67
2018-02-02T07:15:56.418Z,8.30
2018-02-02T07:18:24.734Z,8.10
2018-02-02T07:20:53.794Z,11.30
2018-02-02T07:23:22.116Z,6.97
2018-02-02T07:25:50.412Z,4.47
2018-02-02T07:28:19.487Z,3.67
2018-02-02T07:30:47.784Z,3.70
2018-02-02T07:33:16.103Z,3.97
2018-02-02T07:35:44.402Z,4.00
2018-02-02T07:38:13.483Z,3.50
2018-02-02T07:40:41.780Z,4.43
2018-02-02T07:43:10.869Z,2.93
2018-02-02T07:45:39.166Z,3.20
2018-02-02T07:48:07.498Z,3.60
2018-02-02T07:50:35.798Z,4.80
2018-02-02T07:53:04.875Z,3.30
2018-02-02T07:55:33.195Z,3.63
2018-02-02T07:58:02.256Z,3.87
2018-02-02T08:00:30.598Z,2.97
2018-02-02T08:02:58.894Z,3.33
2018-02-02T08:05:27.215Z,3.40
2018-02-02T08:07:56.279Z,3.27
2018-02-02T08:10:24.839Z,3.90
2018-02-02T08:12:53.140Z,2.80
2018-02-02T08:15:21.459Z,4.40
2018-02-02T08:17:49.764Z,3.43
2018-02-02T08:20:18.100Z,3.80
2018-02-02T08:22:46.397Z,3.53
2018-02-02T08:25:15.500Z,3.60
2018-02-02T08:27:43.800Z,3.30
2018-02-02T08:30:12.112Z,2.93
2018-02-02T08:32:40.418Z,3.23
2018-02-02T08:35:09.498Z,3.37
2018-02-02T08:37:37.802Z,3.47
2018-02-02T08:40:06.142Z,4.57
2018-02-02T08:42:35.228Z,3.60
2018-02-02T08:45:03.523Z,4.20
2018-02-02T08:47:31.871Z,3.80
2018-02-02T08:50:01.102Z,3.93
2018-02-02T08:52:29.424Z,5.33
2018-02-02T08:54:57.735Z,5.03
2018-02-02T08:57:26.063Z,4.43
2018-02-02T08:59:54.372Z,4.90
2018-02-02T09:02:22.699Z,4.30
2018-02-02T09:04:51.007Z,5.10
2018-02-02T09:07:19.349Z,4.50
2018-02-02T09:09:48.556Z,4.60
2018-02-02T09:12:16.871Z,5.17
2018-02-02T09:14:45.175Z,3.47
2018-02-02T09:17:13.508Z,3.63
2018-02-02T09:19:42.566Z,4.57
2018-02-02T09:22:10.396Z,5.33
2018-02-02T09:24:38.707Z,4.00
2018-02-02T09:27:06.546Z,4.20
2018-02-02T09:29:34.851Z,3.77
2018-02-02T09:32:03.224Z,5.03
2018-02-02T09:34:31.531Z,5.10
2018-02-02T09:36:59.869Z,4.90
2018-02-02T09:39:28.171Z,5.30
2018-02-02T09:41:56.480Z,4.37
2018-02-02T09:44:24.816Z,3.90
2018-02-02T09:46:53.119Z,3.20
2018-02-02T09:49:21.438Z,5.13
2018-02-02T09:51:49.737Z,4.90
2018-02-02T09:54:18.082Z,4.07
2018-02-02T09:56:46.384Z,5.47
2018-02-02T09:59:14.726Z,4.63
2018-02-02T10:01:43.816Z,4.03
2018-02-02T10:04:12.135Z,5.23
2018-02-02T10:06:40.439Z,4.23
2018-02-02T10:09:08.759Z,4.80
2018-02-02T10:11:37.068Z,4.37
2018-02-02T10:14:05.395Z,5.10
2018-02-02T10:16:33.708Z,8.67
2018-02-02T10:19:02.770Z,6.23
2018-02-02T10:21:31.086Z,5.30
2018-02-02T10:23:59.387Z,6.17
2018-02-02T10:26:27.718Z,5.80
2018-02-02T10:28:56.010Z,6.07
2018-02-02T10:31:24.335Z,5.67
2018-02-02T10:33:52.635Z,5.33
2018-02-02T10:36:20.962Z,6.40
2018-02-02T10:38:49.257Z,5.10
2018-02-02T10:41:17.580Z,5.03
2018-02-02T10:43:45.889Z,5.33
2018-02-02T10:46:14.213Z,5.70
2018-02-02T10:48:42.503Z,5.80
2018-02-02T10:51:10.828Z,5.60
2018-02-02T10:53:39.125Z,5.63
2018-02-02T10:56:07.435Z,5.70
2018-02-02T10:58:35.759Z,5.70
2018-02-02T11:01:09.691Z,5.30
2018-02-02T11:06:39.180Z,5.07
2018-02-02T11:09:08.239Z,5.63
2018-02-02T11:11:36.559Z,5.07
2018-02-02T11:14:05.619Z,4.97
2018-02-02T11:16:33.950Z,4.80
2018-02-02T11:19:02.253Z,6.10
2018-02-02T11:21:30.558Z,6.00
2018-02-02T11:23:58.879Z,5.80
2018-02-02T11:26:27.174Z,4.73
2018-02-02T11:28:55.501Z,5.43
2018-02-02T11:31:23.803Z,5.67
2018-02-02T11:33:52.889Z,4.57
2018-02-02T11:36:21.950Z,5.50
2018-02-02T11:38:50.283Z,5.10
2018-02-02T11:41:18.580Z,5.23
2018-02-02T11:43:46.908Z,6.10
2018-02-02T11:46:15.194Z,5.10
2018-02-02T11:48:46.462Z,4.40
2018-02-02T11:51:14.764Z,5.33
2018-02-02T11:53:43.112Z,5.07
2018-02-02T11:56:12.221Z,4.50
2018-02-02T11:58:40.542Z,5.70
2018-02-02T12:01:08.843Z,5.03
2018-02-02T12:03:37.155Z,5.70
2018-02-02T12:06:05.464Z,5.70
2018-02-02T12:08:33.802Z,5.00
2018-02-02T12:11:02.091Z,6.00
2018-02-02T12:13:30.384Z,4.90
2018-02-02T12:15:58.718Z,4.67
2018-02-02T12:18:27.007Z,3.70
2018-02-02T12:20:56.087Z,3.70
2018-02-02T12:23:25.188Z,4.17
2018-02-02T12:25:59.182Z,4.37
2018-02-02T12:31:49.992Z,3.57
2018-02-02T12:34:24.051Z,4.27
2018-02-02T12:36:53.112Z,3.43
2018-02-02T12:39:21.487Z,3.97
2018-02-02T12:41:49.813Z,4.20
2018-02-02T12:44:18.871Z,3.87
2018-02-02T12:46:47.182Z,3.70
2018-02-02T12:49:16.243Z,4.13
2018-02-02T12:51:44.568Z,3.50
2018-02-02T12:54:12.866Z,4.20
2018-02-02T12:56:41.192Z,4.37
2018-02-02T12:59:09.482Z,3.80
2018-02-02T13:01:38.565Z,4.30
2018-02-02T13:04:06.855Z,4.20
2018-02-02T13:06:35.936Z,4.57
2018-02-02T13:09:04.262Z,4.10
2018-02-02T13:11:33.348Z,4.03
2018-02-02T13:14:01.665Z,4.27
2018-02-02T13:16:29.978Z,4.10
2018-02-02T13:18:59.031Z,4.33
2018-02-02T13:21:28.116Z,4.33
2018-02-02T13:23:56.403Z,4.10
2018-02-02T13:26:24.703Z,3.87
2018-02-02T13:28:53.015Z,4.30
2018-02-02T13:31:22.075Z,4.43
2018-02-02T13:33:50.407Z,3.83
2018-02-02T13:36:18.698Z,3.40
2018-02-02T13:38:47.018Z,2.83
2018-02-02T13:41:15.310Z,4.20
2018-02-02T13:43:44.392Z,4.43
2018-02-02T13:46:12.688Z,4.20
2018-02-02T13:48:41.763Z,3.90
2018-02-02T13:51:10.057Z,4.57
2018-02-02T13:53:39.139Z,4.60
2018-02-02T13:56:07.427Z,4.10
2018-02-02T13:58:36.512Z,3.50
2018-02-02T14:01:04.795Z,3.50
2018-02-02T14:03:33.087Z,4.07
2018-02-02T14:06:01.415Z,4.53
2018-02-02T14:08:29.706Z,4.10
2018-02-02T14:10:58.031Z,5.37
2018-02-02T14:13:26.326Z,4.77
2018-02-02T14:15:54.645Z,4.40
2018-02-02T14:18:22.936Z,4.80
2018-02-02T14:20:51.250Z,4.10
2018-02-02T14:23:19.542Z,4.03
2018-02-02T14:25:47.863Z,3.63
2018-02-02T14:28:16.157Z,5.23
2018-02-02T14:30:44.451Z,4.23
2018-02-02T14:33:13.557Z,3.73
2018-02-02T14:35:42.607Z,4.77
2018-02-02T14:38:10.932Z,5.07
2018-02-02T14:40:39.223Z,4.57
2018-02-02T14:43:07.544Z,4.30
2018-02-02T14:45:35.842Z,4.47
2018-02-02T14:48:04.922Z,4.40
2018-02-02T14:50:33.223Z,4.40
2018-02-02T14:53:02.311Z,3.60
2018-02-02T14:55:30.614Z,4.57
2018-02-02T14:57:58.936Z,5.17
2018-02-02T15:00:27.247Z,4.80
2018-02-02T15:02:56.361Z,6.30
2018-02-02T15:05:25.432Z,4.90
2018-02-02T15:07:53.750Z,10.60
2018-02-02T15:10:22.056Z,6.37
2018-02-02T15:12:50.373Z,6.73
2018-02-02T15:15:19.511Z,6.47
2018-02-02T15:17:47.824Z,5.60
2018-02-02T15:20:16.122Z,4.87
2018-02-02T15:22:44.947Z,5.30
2018-02-02T15:25:13.252Z,4.73
2018-02-02T15:27:41.578Z,5.20
2018-02-02T15:30:10.643Z,4.80
2018-02-02T15:32:38.943Z,4.30
2018-02-02T15:35:07.259Z,4.63
2018-02-02T15:37:35.555Z,4.73
2018-02-02T15:40:03.887Z,4.67
2018-02-02T15:42:32.951Z,5.40
2018-02-02T15:45:01.269Z,5.63
2018-02-02T15:47:30.323Z,5.00
2018-02-02T15:49:58.635Z,5.93
2018-02-02T15:52:27.708Z,5.40
2018-02-02T15:54:56.024Z,5.47
2018-02-02T15:57:24.335Z,5.33
2018-02-02T15:59:52.667Z,6.03
2018-02-02T16:02:21.724Z,5.40
2018-02-02T16:04:50.028Z,6.80
2018-02-02T16:07:18.347Z,7.73
2018-02-02T16:09:46.639Z,6.17
2018-02-02T16:12:15.033Z,5.20
2018-02-02T16:14:43.315Z,6.07
2018-02-02T16:17:11.646Z,5.47
2018-02-02T16:19:39.944Z,5.97
2018-02-02T16:22:08.261Z,6.37
2018-02-02T16:24:36.569Z,7.07
2018-02-02T16:27:05.664Z,5.60
2018-02-02T16:29:34.729Z,7.13
2018-02-02T16:32:03.051Z,8.07
2018-02-02T16:34:31.348Z,7.33
2018-02-02T16:36:59.668Z,7.50
2018-02-02T16:39:28.761Z,6.90
2018-02-02T16:41:57.084Z,6.67
2018-02-02T16:44:25.383Z,5.80
2018-02-02T16:46:53.699Z,6.77
2018-02-02T16:49:22.004Z,6.80
2018-02-02T16:51:51.127Z,7.00
2018-02-02T16:54:19.433Z,6.77
2018-02-02T16:56:47.760Z,7.50
2018-02-02T16:59:16.829Z,7.40
2018-02-02T17:01:45.162Z,6.57
2018-02-02T17:04:13.462Z,7.67
2018-02-02T17:06:41.760Z,6.47
2018-02-02T17:09:11.086Z,7.50
2018-02-02T17:11:43.523Z,6.53
2018-02-02T17:14:11.839Z,7.07
2018-02-02T17:16:40.916Z,6.77
2018-02-02T17:19:09.256Z,7.20
2018-02-02T17:21:37.567Z,7.67
2018-02-02T17:24:05.891Z,8.53
2018-02-02T17:26:34.192Z,7.00
2018-02-02T17:29:02.511Z,6.60
2018-02-02T17:31:30.837Z,8.10
2018-02-02T17:33:59.147Z,7.50
2018-02-02T17:36:27.447Z,7.33
2018-02-02T17:38:55.770Z,6.63
2018-02-02T17:41:24.070Z,8.13
2018-02-02T17:43:52.390Z,7.80
2018-02-02T17:46:21.463Z,9.40
2018-02-02T17:48:49.795Z,7.50
2018-02-02T17:51:18.103Z,6.83
2018-02-02T17:53:46.422Z,7.60
2018-02-02T17:56:15.490Z,8.47
2018-02-02T17:58:43.822Z,6.93
2018-02-02T18:01:13.574Z,7.87
2018-02-02T18:03:41.952Z,10.70
2018-02-02T18:06:10.291Z,5.97
2018-02-02T18:08:38.608Z,7.53
2018-02-02T18:11:06.952Z,10.30
2018-02-02T18:13:35.462Z,7.53
2018-02-02T18:16:03.923Z,10.57
2018-02-02T18:18:32.263Z,10.97
2018-02-02T18:21:01.356Z,8.23
2018-02-02T18:23:30.567Z,9.00
2018-02-02T18:25:59.650Z,7.83
2018-02-02T18:28:27.945Z,9.83
2018-02-02T18:30:57.041Z,7.90
2018-02-02T18:33:26.103Z,8.80
2018-02-02T18:35:54.436Z,7.97
2018-02-02T18:38:22.736Z,8.27
2018-02-02T18:40:51.052Z,9.33
2018-02-02T18:43:19.348Z,7.63
2018-02-02T18:45:48.442Z,10.47
2018-02-02T18:48:17.511Z,9.50
2018-02-02T18:50:45.908Z,8.80
2018-02-02T18:53:14.208Z,7.70
2018-02-02T18:55:43.319Z,7.27
2018-02-02T18:58:11.696Z,8.93
2018-02-02T19:00:40.007Z,8.33
2018-02-02T19:03:08.335Z,9.87
2018-02-02T19:05:36.642Z,9.50
2018-02-02T19:08:04.975Z,10.00
2018-02-02T19:10:33.272Z,8.40
2018-02-02T19:13:02.418Z,12.33
2018-02-02T19:15:30.720Z,12.13
2018-02-02T19:17:59.047Z,13.47
2018-02-02T19:20:27.352Z,11.40
2018-02-02T19:22:55.690Z,10.23
2018-02-02T19:25:24.000Z,11.00
2018-02-02T19:27:52.330Z,10.07
2018-02-02T19:30:21.418Z,9.00
2018-02-02T19:32:49.739Z,10.43
2018-02-02T19:35:18.038Z,9.67
2018-02-02T19:37:46.364Z,11.73
2018-02-02T19:40:14.677Z,10.97
2018-02-02T19:42:42.999Z,11.07
2018-02-02T19:45:11.310Z,11.17
2018-02-02T19:47:39.688Z,12.53
2018-02-02T19:50:08.765Z,11.13
2018-02-02T19:52:37.153Z,10.90
2018-02-02T19:55:19.921Z,10.03
2018-02-02T19:57:50.051Z,11.20
2018-02-02T20:00:18.380Z,12.03
2018-02-02T20:02:46.683Z,11.03
2018-02-02T20:05:15.779Z,11.70
2018-02-02T20:07:44.128Z,11.67
2018-02-02T20:10:13.276Z,12.20
2018-02-02T20:12:41.623Z,10.67
2018-02-02T20:15:09.999Z,11.83
2018-02-02T20:17:38.361Z,11.20
2018-02-02T20:20:07.453Z,10.33
2018-02-02T20:22:37.447Z,10.90
2018-02-02T20:25:05.822Z,9.77
2018-02-02T20:27:34.175Z,10.17
2018-02-02T20:30:02.536Z,9.63
2018-02-02T20:32:30.879Z,10.97
2018-02-02T20:34:59.267Z,9.93
2018-02-02T20:37:28.386Z,10.07
2018-02-02T20:39:56.753Z,10.30
2018-02-02T20:42:25.064Z,10.60
2018-02-02T20:44:53.418Z,9.30
2018-02-02T20:47:21.719Z,9.50
2018-02-02T20:49:53.535Z,9.67
2018-02-02T20:52:22.604Z,10.63
2018-02-02T20:54:50.927Z,9.60
2018-02-02T20:57:19.228Z,9.63
2018-02-02T20:59:47.554Z,10.70
2018-02-02T21:02:15.934Z,11.30
2018-02-02T21:04:44.233Z,10.60
2018-02-02T21:07:13.369Z,10.07
2018-02-02T21:09:41.695Z,10.10
2018-02-02T21:12:10.012Z,9.90
2018-02-02T21:14:38.314Z,10.37
2018-02-02T21:17:06.694Z,9.50
2018-02-02T21:19:34.997Z,9.80
2018-02-02T21:22:03.371Z,10.10
2018-02-02T21:24:31.686Z,14.00
2018-02-02T21:27:01.130Z,13.17
2018-02-02T21:29:29.493Z,11.83
2018-02-02T21:31:57.822Z,9.80
2018-02-02T21:34:26.178Z,11.47
2018-02-02T21:36:54.568Z,11.07
2018-02-02T21:39:22.922Z,14.23
2018-02-02T21:41:51.317Z,17.70
2018-02-02T21:44:19.674Z,13.90
2018-02-02T21:46:48.038Z,8.40
2018-02-02T21:49:16.385Z,7.30
2018-02-02T21:51:45.519Z,9.37
2018-02-02T21:54:13.820Z,9.50
2018-02-02T21:56:42.124Z,9.63
2018-02-02T21:59:10.452Z,8.10
2018-02-02T22:01:38.827Z,8.93
2018-02-02T22:04:07.155Z,9.90
2018-02-02T22:06:35.455Z,8.87
2018-02-02T22:09:04.584Z,8.77
2018-02-02T22:11:32.908Z,8.37
2018-02-02T22:14:01.233Z,8.37
2018-02-02T22:16:29.547Z,11.63
2018-02-02T22:18:57.870Z,6.80
2018-02-02T22:21:26.987Z,10.40
2018-02-02T22:23:55.316Z,10.40
2018-02-02T22:26:23.635Z,10.60
2018-02-02T22:28:52.732Z,11.07
2018-02-02T22:31:22.030Z,8.90
2018-02-02T22:33:51.181Z,8.93
2018-02-02T22:36:19.526Z,9.03
2018-02-02T22:38:47.863Z,9.13
2018-02-02T22:41:16.166Z,8.63
2018-02-02T22:43:44.492Z,9.90
2018-02-02T22:46:12.858Z,10.00
2018-02-02T22:48:41.236Z,10.23
2018-02-02T22:51:09.535Z,8.70
2018-02-02T22:53:37.870Z,10.43
2018-02-02T22:56:06.176Z,7.30
2018-02-02T22:58:34.480Z,10.97
2018-02-02T23:01:02.816Z,8.83
2018-02-02T23:03:31.128Z,9.87
2018-02-02T23:05:59.515Z,8.90
2018-02-02T23:08:29.330Z,12.13
2018-02-02T23:10:57.662Z,10.43
2018-02-02T23:13:25.977Z,10.83
2018-02-02T23:15:54.326Z,9.30
2018-02-02T23:18:22.626Z,8.90
2018-02-02T23:20:50.983Z,8.63
2018-02-02T23:23:19.288Z,7.10
2018-02-02T23:25:47.619Z,8.87
2018-02-02T23:28:15.927Z,9.97
2018-02-02T23:30:44.235Z,11.97
2018-02-02T23:33:14.075Z,11.50
2018-02-02T23:35:43.152Z,10.93
2018-02-02T23:38:11.487Z,10.23
2018-02-02T23:40:39.789Z,8.53
2018-02-02T23:43:08.102Z,8.30
2018-02-02T23:45:37.174Z,9.13
2018-02-02T23:48:05.499Z,7.97
2018-02-02T23:50:33.804Z,10.17
2018-02-02T23:53:02.132Z,10.20
2018-02-02T23:55:31.196Z,10.57
2018-02-02T23:57:59.539Z,10.23
